createdAt,value
2018-02-19T00:00:21.194Z,18.35
2018-02-19T00:02:49.407Z,17.87
2018-02-19T00:05:17.081Z,17.50
2018-02-19T00:07:44.562Z,17.60
2018-02-19T00:10:11.990Z,19.08
2018-02-19T00:12:39.466Z,17.48
2018-02-19T00:15:06.922Z,18.05
2018-02-19T00:17:34.382Z,19.05
2018-02-19T00:20:01.839Z,17.67
2018-02-19T00:22:29.284Z,17.58
2018-02-19T00:24:56.749Z,17.58
2018-02-19T00:27:24.202Z,18.65
2018-02-19T00:29:51.667Z,17.83
2018-02-19T00:32:19.106Z,17.52
2018-02-19T00:34:46.662Z,18.58
2018-02-19T00:37:14.122Z,17.25
2018-02-19T00:39:41.572Z,18.52
2018-02-19T00:42:08.998Z,18.08
2018-02-19T00:44:36.435Z,17.52
2018-02-19T00:47:04.643Z,18.05
2018-02-19T00:49:32.101Z,17.77
2018-02-19T00:51:59.571Z,18.30
2018-02-19T00:54:27.042Z,20.10
2018-02-19T00:56:54.494Z,19.08
2018-02-19T00:59:21.954Z,17.33
2018-02-19T01:01:49.410Z,18.40
2018-02-19T01:04:16.856Z,18.10
2018-02-19T01:06:44.322Z,18.48
2018-02-19T01:09:11.764Z,18.92
2018-02-19T01:11:39.207Z,18.17
2018-02-19T01:14:06.646Z,18.08
2018-02-19T01:16:34.243Z,18.08
2018-02-19T01:19:01.695Z,19.17
2018-02-19T01:21:29.154Z,18.02
2018-02-19T01:23:56.688Z,18.33
2018-02-19T01:26:24.138Z,18.80
2018-02-19T01:28:51.567Z,18.67
2018-02-19T01:31:19.790Z,18.62
2018-02-19T01:33:47.229Z,19.12
2018-02-19T01:36:14.710Z,19.00
2018-02-19T01:38:42.174Z,19.40
2018-02-19T01:41:09.618Z,18.35
2018-02-19T01:43:37.060Z,19.60
2018-02-19T01:46:04.550Z,18.08
2018-02-19T01:48:31.994Z,18.87
2018-02-19T01:50:59.433Z,17.77
2018-02-19T01:53:26.886Z,18.52
2018-02-19T01:55:54.330Z,19.05
2018-02-19T01:58:21.863Z,18.92
2018-02-19T02:00:50.081Z,19.42
2018-02-19T02:03:17.537Z,18.87
2018-02-19T02:05:44.988Z,18.55
2018-02-19T02:08:12.425Z,17.80
2018-02-19T02:10:39.924Z,17.73
2018-02-19T02:13:07.368Z,17.77
2018-02-19T02:15:34.914Z,18.85
2018-02-19T02:18:02.348Z,17.27
2018-02-19T02:20:29.782Z,18.27
2018-02-19T02:22:58.024Z,18.90
2018-02-19T02:25:25.475Z,19.95
2018-02-19T02:27:52.906Z,18.52
2018-02-19T02:30:20.333Z,19.20
2018-02-19T02:32:48.540Z,18.30
2018-02-19T02:35:16.024Z,19.80
2018-02-19T02:37:43.467Z,18.35
2018-02-19T02:40:10.902Z,18.33
2018-02-19T02:42:38.381Z,19.45
2018-02-19T02:45:05.816Z,18.92
2018-02-19T02:47:33.262Z,18.85
2018-02-19T02:50:00.690Z,19.80
2018-02-19T02:52:28.907Z,18.70
2018-02-19T02:54:56.332Z,19.15
2018-02-19T02:57:24.576Z,19.23
2018-02-19T02:59:52.035Z,19.77
2018-02-19T03:02:19.573Z,19.30
2018-02-19T03:04:47.006Z,18.10
2018-02-19T03:07:14.437Z,19.90
2018-02-19T03:09:42.642Z,18.92
2018-02-19T03:12:10.111Z,19.35
2018-02-19T03:14:37.551Z,19.20
2018-02-19T03:17:04.985Z,20.65
2018-02-19T03:19:32.430Z,20.17
2018-02-19T03:22:00.635Z,19.33
2018-02-19T03:24:28.076Z,19.87
2018-02-19T03:26:55.505Z,20.05
2018-02-19T03:29:23.741Z,20.58
2018-02-19T03:31:51.172Z,19.87
2018-02-19T03:34:18.614Z,19.37
2018-02-19T03:36:46.050Z,20.77
2018-02-19T03:39:14.288Z,20.05
2018-02-19T03:41:41.725Z,20.35
2018-02-19T03:44:09.201Z,20.50
2018-02-19T03:46:36.658Z,21.70
2018-02-19T03:49:04.119Z,20.75
2018-02-19T03:51:31.569Z,22.60
2018-02-19T03:53:59.027Z,21.92
2018-02-19T03:56:26.482Z,20.92
2018-02-19T03:58:53.939Z,20.88
2018-02-19T04:01:21.382Z,21.83
2018-02-19T04:03:48.854Z,21.70
2018-02-19T04:06:16.305Z,21.52
2018-02-19T04:08:43.749Z,21.90
2018-02-19T04:11:11.208Z,22.60
2018-02-19T04:13:38.652Z,22.42
2018-02-19T04:16:06.090Z,21.35
2018-02-19T04:18:33.530Z,22.30
2018-02-19T04:21:01.737Z,22.00
2018-02-19T04:23:29.169Z,21.57
2018-02-19T04:25:56.602Z,22.87
2018-02-19T04:28:24.813Z,22.90
2018-02-19T04:30:52.301Z,21.92
2018-02-19T04:33:19.750Z,23.20
2018-02-19T04:35:47.213Z,23.27
2018-02-19T04:38:14.678Z,23.17
2018-02-19T04:40:42.130Z,23.02
2018-02-19T04:43:09.560Z,23.70
2018-02-19T04:45:50.028Z,23.30
2018-02-19T04:48:17.506Z,24.70
2018-02-19T04:50:44.954Z,23.27
2018-02-19T04:53:12.409Z,24.55
2018-02-19T04:55:39.974Z,24.33
2018-02-19T04:58:07.413Z,24.08
2018-02-19T05:00:34.966Z,24.67
2018-02-19T05:03:02.447Z,24.55
2018-02-19T05:05:29.886Z,23.03
2018-02-19T05:07:57.349Z,24.50
2018-02-19T05:10:24.783Z,23.58
2018-02-19T05:12:52.381Z,24.52
2018-02-19T05:15:19.822Z,23.90
2018-02-19T05:17:47.260Z,24.57
2018-02-19T05:20:14.735Z,24.10
2018-02-19T05:22:42.287Z,24.03
2018-02-19T05:25:09.771Z,23.97
2018-02-19T05:27:37.314Z,26.10
2018-02-19T05:30:04.752Z,24.80
2018-02-19T05:32:32.251Z,26.10
2018-02-19T05:34:59.690Z,24.80
2018-02-19T05:37:27.143Z,25.00
2018-02-19T05:39:54.586Z,25.40
2018-02-19T05:42:22.026Z,25.80
2018-02-19T05:44:50.335Z,25.20
2018-02-19T05:47:17.882Z,25.17
2018-02-19T05:49:45.354Z,25.50
2018-02-19T05:52:12.791Z,25.58
2018-02-19T05:54:40.221Z,25.35
2018-02-19T05:57:07.659Z,26.05
2018-02-19T05:59:35.931Z,26.33
2018-02-19T06:02:03.309Z,25.98
2018-02-19T06:04:30.737Z,26.20
2018-02-19T06:06:58.957Z,26.87
2018-02-19T06:09:26.396Z,27.00
2018-02-19T06:11:53.827Z,26.00
2018-02-19T06:14:22.059Z,26.92
2018-02-19T06:16:49.502Z,26.50
2018-02-19T06:19:16.970Z,26.90
2018-02-19T06:21:44.423Z,27.52
2018-02-19T06:24:11.865Z,26.00
2018-02-19T06:26:39.298Z,29.98
2018-02-19T06:29:06.784Z,27.85
2018-02-19T06:31:34.304Z,27.15
2018-02-19T06:34:01.811Z,27.00
2018-02-19T06:36:29.241Z,28.27
2018-02-19T06:38:56.694Z,26.30
2018-02-19T06:41:24.204Z,28.87
2018-02-19T06:43:51.650Z,28.35
2018-02-19T06:46:19.173Z,28.75
2018-02-19T06:48:46.606Z,30.15
2018-02-19T06:51:14.084Z,29.17
2018-02-19T06:53:41.544Z,28.48
2018-02-19T06:56:09.019Z,29.30
2018-02-19T06:58:36.506Z,29.58
2018-02-19T07:01:03.952Z,29.27
2018-02-19T07:03:31.473Z,28.92
2018-02-19T07:06:00.078Z,29.30
2018-02-19T07:08:27.526Z,28.98
2018-02-19T07:10:54.958Z,28.35
2018-02-19T07:13:22.415Z,28.20
2018-02-19T07:15:49.858Z,28.30
2018-02-19T07:18:17.302Z,30.92
2018-02-19T07:20:45.511Z,28.95
2018-02-19T07:23:13.900Z,29.17
2018-02-19T07:25:41.365Z,30.52
2018-02-19T07:28:08.928Z,29.42
2018-02-19T07:30:36.395Z,31.10
2018-02-19T07:33:03.875Z,35.10
2018-02-19T07:35:31.360Z,30.15
2018-02-19T07:37:58.846Z,28.80
2018-02-19T07:40:26.324Z,28.27
2018-02-19T07:42:53.863Z,29.65
2018-02-19T07:45:21.331Z,29.70
2018-02-19T07:47:48.807Z,29.52
2018-02-19T07:50:16.610Z,36.85
2018-02-19T07:52:44.895Z,29.55
2018-02-19T07:55:12.351Z,31.30
2018-02-19T07:57:39.782Z,29.98
2018-02-19T08:00:08.003Z,31.73
2018-02-19T08:02:35.490Z,31.30
2018-02-19T08:05:03.866Z,31.45
2018-02-19T08:07:31.407Z,29.92
2018-02-19T08:09:58.859Z,31.60
2018-02-19T08:12:26.363Z,33.45
2018-02-19T08:14:53.870Z,30.33
2018-02-19T08:17:21.423Z,31.92
2018-02-19T08:19:48.859Z,36.33
2018-02-19T08:22:16.298Z,31.70
2018-02-19T08:24:43.810Z,31.70
2018-02-19T08:27:11.270Z,33.10
2018-02-19T08:29:38.784Z,34.55
2018-02-19T08:32:06.215Z,33.40
2018-02-19T08:34:33.651Z,33.53
2018-02-19T08:37:01.868Z,33.72
2018-02-19T08:39:29.325Z,32.50
2018-02-19T08:41:56.754Z,32.42
2018-02-19T08:44:24.357Z,33.70
2018-02-19T08:46:51.790Z,37.30
2018-02-19T08:49:19.227Z,36.25
2018-02-19T08:51:46.735Z,35.80
2018-02-19T08:54:14.202Z,33.15
2018-02-19T08:56:41.658Z,34.15
2018-02-19T08:59:09.117Z,34.85
2018-02-19T09:01:36.560Z,35.67
2018-02-19T09:04:04.014Z,34.80
2018-02-19T09:06:31.498Z,34.78
2018-02-19T09:08:58.947Z,33.50
2018-02-19T09:11:26.404Z,34.47
2018-02-19T09:13:53.919Z,33.65
2018-02-19T09:16:21.359Z,32.22
2018-02-19T09:18:48.913Z,33.13
2018-02-19T09:21:16.328Z,34.55
2018-02-19T09:23:43.782Z,33.95
2018-02-19T09:26:11.359Z,34.22
2018-02-19T09:28:39.682Z,32.55
2018-02-19T09:31:07.124Z,33.53
2018-02-19T09:33:34.578Z,34.58
2018-02-19T09:36:02.175Z,33.30
2018-02-19T09:38:29.645Z,35.80
2018-02-19T09:40:57.366Z,35.25
2018-02-19T09:43:24.792Z,32.78
2018-02-19T09:45:52.247Z,35.97
2018-02-19T09:48:20.470Z,33.90
2018-02-19T09:50:47.906Z,34.15
2018-02-19T09:53:15.346Z,33.70
2018-02-19T09:55:42.792Z,33.40
2018-02-19T09:58:10.998Z,33.80
2018-02-19T10:00:38.462Z,34.20
2018-02-19T10:03:05.889Z,34.33
2018-02-19T10:05:33.378Z,33.65
2018-02-19T10:08:00.806Z,32.78
2018-02-19T10:10:28.261Z,32.03
2018-02-19T10:12:56.478Z,31.65
2018-02-19T10:15:23.948Z,32.28
2018-02-19T10:17:51.389Z,32.30
2018-02-19T10:20:18.857Z,32.60
2018-02-19T10:22:46.306Z,32.83
2018-02-19T10:25:13.787Z,33.05
2018-02-19T10:27:41.213Z,34.90
2018-02-19T10:30:08.662Z,34.10
2018-02-19T10:32:36.114Z,34.97
2018-02-19T10:35:03.594Z,33.63
2018-02-19T10:37:31.064Z,33.30
2018-02-19T10:39:58.502Z,34.50
2018-02-19T10:42:25.954Z,34.90
2018-02-19T10:44:53.401Z,35.50
2018-02-19T10:47:20.838Z,35.05
2018-02-19T10:49:48.278Z,34.70
2018-02-19T10:52:15.969Z,34.95
2018-02-19T10:54:43.401Z,35.33
2018-02-19T10:57:10.845Z,35.85
2018-02-19T10:59:39.085Z,36.60
2018-02-19T11:02:06.659Z,37.83
2018-02-19T11:04:34.202Z,38.65
2018-02-19T11:07:01.858Z,39.42
2018-02-19T11:09:29.308Z,36.67
2018-02-19T11:11:56.795Z,37.95
2018-02-19T11:14:24.243Z,37.90
2018-02-19T11:16:53.196Z,36.83
2018-02-19T11:19:20.629Z,34.92
2018-02-19T11:21:49.126Z,36.67
2018-02-19T11:24:16.612Z,35.92
2018-02-19T11:26:44.055Z,35.95
2018-02-19T11:29:11.515Z,38.78
2018-02-19T11:31:39.053Z,36.45
2018-02-19T11:34:06.499Z,36.70
2018-02-19T11:36:33.967Z,37.42
2018-02-19T11:39:01.413Z,37.33
2018-02-19T11:41:28.847Z,35.33
2018-02-19T11:43:56.475Z,37.80
2018-02-19T11:46:23.947Z,37.58
2018-02-19T11:48:51.461Z,37.67
2018-02-19T11:51:18.937Z,37.67
2018-02-19T11:53:46.410Z,38.00
2018-02-19T11:56:13.886Z,38.67
2018-02-19T11:58:44.252Z,38.00
2018-02-19T12:01:11.695Z,39.65
2018-02-19T12:03:39.163Z,38.90
2018-02-19T12:06:06.680Z,37.40
2018-02-19T12:08:34.075Z,39.78
2018-02-19T12:11:01.534Z,39.72
2018-02-19T12:13:29.080Z,41.13
2018-02-19T12:15:56.947Z,41.33
2018-02-19T12:18:24.402Z,39.35
2018-02-19T12:20:51.912Z,39.95
2018-02-19T12:23:19.346Z,40.35
2018-02-19T12:25:46.809Z,41.58
2018-02-19T12:28:14.254Z,40.30
2018-02-19T12:30:41.702Z,39.30
2018-02-19T12:33:09.256Z,39.58
2018-02-19T12:35:36.702Z,39.58
2018-02-19T12:38:04.188Z,39.88
2018-02-19T12:40:31.635Z,40.25
2018-02-19T12:42:59.084Z,38.95
2018-02-19T12:45:26.635Z,38.50
2018-02-19T12:47:54.071Z,41.45
2018-02-19T12:50:21.576Z,39.83
2018-02-19T12:52:49.104Z,37.83
2018-02-19T12:55:16.602Z,38.50
2018-02-19T12:57:44.035Z,40.37
2018-02-19T13:00:11.486Z,35.42
2018-02-19T13:02:38.918Z,37.42
2018-02-19T13:05:06.422Z,39.42
2018-02-19T13:07:34.047Z,42.00
2018-02-19T13:10:01.473Z,39.90
2018-02-19T13:12:28.982Z,39.75
2018-02-19T13:14:56.431Z,39.38
2018-02-19T13:17:23.878Z,41.37
2018-02-19T13:19:51.430Z,39.63
2018-02-19T13:22:18.901Z,39.53
2018-02-19T13:24:46.344Z,40.67
2018-02-19T13:27:13.784Z,38.93
2018-02-19T13:29:41.220Z,39.13
2018-02-19T13:32:09.446Z,38.97
2018-02-19T13:34:36.987Z,38.72
2018-02-19T13:37:04.651Z,37.53
2018-02-19T13:39:32.132Z,38.70
2018-02-19T13:41:59.666Z,39.55
2018-02-19T13:44:27.116Z,37.80
2018-02-19T13:46:54.697Z,39.70
2018-02-19T13:49:22.134Z,39.75
2018-02-19T13:51:49.586Z,41.20
2018-02-19T13:54:17.082Z,39.65
2018-02-19T13:56:44.532Z,49.38
2018-02-19T13:59:11.996Z,39.72
2018-02-19T14:01:39.552Z,39.35
2018-02-19T14:04:07.010Z,38.15
2018-02-19T14:06:34.479Z,38.45
2018-02-19T14:09:02.060Z,37.85
2018-02-19T14:11:30.269Z,38.65
2018-02-19T14:13:57.828Z,38.75
2018-02-19T14:16:25.317Z,39.15
2018-02-19T14:18:53.695Z,38.30
2018-02-19T14:21:21.149Z,37.38
2018-02-19T14:23:48.729Z,37.78
2018-02-19T14:26:16.174Z,36.70
2018-02-19T14:28:43.624Z,36.63
2018-02-19T14:31:11.056Z,35.33
2018-02-19T14:33:38.542Z,36.03
2018-02-19T14:36:05.987Z,35.95
2018-02-19T14:38:33.550Z,36.30
2018-02-19T14:41:01.110Z,37.22
2018-02-19T14:43:28.566Z,37.22
2018-02-19T14:45:56.191Z,34.63
2018-02-19T14:48:23.631Z,32.92
2018-02-19T14:50:51.098Z,35.05
2018-02-19T14:53:18.662Z,33.10
2018-02-19T14:55:46.124Z,34.65
2018-02-19T14:58:13.583Z,34.33
2018-02-19T15:00:41.050Z,34.80
2018-02-19T15:03:08.491Z,32.85
2018-02-19T15:05:35.937Z,32.78
2018-02-19T15:08:03.405Z,31.92
2018-02-19T15:10:30.857Z,33.10
2018-02-19T15:12:58.312Z,32.13
2018-02-19T15:15:25.749Z,32.83
2018-02-19T15:17:53.963Z,33.40
2018-02-19T15:20:21.395Z,34.28
2018-02-19T15:22:48.862Z,32.95
2018-02-19T15:25:16.327Z,31.77
2018-02-19T15:27:43.791Z,33.58
2018-02-19T15:30:11.248Z,33.45
2018-02-19T15:32:38.784Z,33.07
2018-02-19T15:35:06.202Z,34.10
2018-02-19T15:37:34.474Z,33.30
2018-02-19T15:40:02.814Z,33.05
2018-02-19T15:42:30.234Z,35.45
2018-02-19T15:44:58.090Z,35.33
2018-02-19T15:47:26.289Z,33.58
2018-02-19T15:49:53.743Z,33.65
2018-02-19T15:52:21.186Z,33.80
2018-02-19T15:54:48.629Z,33.97
2018-02-19T15:57:16.821Z,34.35
2018-02-19T15:59:45.034Z,34.47
2018-02-19T16:02:12.489Z,35.90
2018-02-19T16:04:40.734Z,33.33
2018-02-19T16:07:08.499Z,35.25
2018-02-19T16:09:35.921Z,33.03
2018-02-19T16:12:04.233Z,34.08
2018-02-19T16:14:31.676Z,35.97
2018-02-19T16:16:59.871Z,35.25
2018-02-19T16:19:27.322Z,34.58
2018-02-19T16:21:54.775Z,35.47
2018-02-19T16:24:22.240Z,35.97
2018-02-19T16:26:49.706Z,36.10
2018-02-19T16:29:17.135Z,35.55
2018-02-19T16:31:44.609Z,35.17
2018-02-19T16:34:12.057Z,36.00
2018-02-19T16:36:39.492Z,35.13
2018-02-19T16:39:06.923Z,34.50
2018-02-19T16:41:34.410Z,36.75
2018-02-19T16:44:01.863Z,36.42
2018-02-19T16:46:29.377Z,35.95
2018-02-19T16:48:57.238Z,35.83
2018-02-19T16:51:24.688Z,37.17
2018-02-19T16:53:52.126Z,36.33
2018-02-19T16:56:19.607Z,36.67
2018-02-19T16:58:47.058Z,33.90
2018-02-19T17:01:14.512Z,36.13
2018-02-19T17:03:42.043Z,37.33
2018-02-19T17:06:09.462Z,35.78
2018-02-19T17:08:37.711Z,37.30
2018-02-19T17:11:05.234Z,38.03
2018-02-19T17:13:32.671Z,36.38
2018-02-19T17:16:00.247Z,36.28
2018-02-19T17:18:27.762Z,38.92
2018-02-19T17:20:56.015Z,39.65
2018-02-19T17:23:23.472Z,41.30
2018-02-19T17:25:51.047Z,38.47
2018-02-19T17:28:19.259Z,40.95
2018-02-19T17:30:46.712Z,38.97
2018-02-19T17:33:14.215Z,38.92
2018-02-19T17:35:41.658Z,40.80
2018-02-19T17:38:09.141Z,39.90
2018-02-19T17:40:36.585Z,40.12
2018-02-19T17:43:04.071Z,41.10
2018-02-19T17:45:32.307Z,41.22
2018-02-19T17:47:59.756Z,41.22
2018-02-19T17:50:27.185Z,42.73
2018-02-19T17:52:54.651Z,39.10
2018-02-19T17:55:22.090Z,37.58
2018-02-19T17:57:49.602Z,40.92
2018-02-19T18:00:17.070Z,42.70
2018-02-19T18:02:44.509Z,39.40
2018-02-19T18:05:12.190Z,37.67
2018-02-19T18:07:39.697Z,39.30
2018-02-19T18:10:07.313Z,39.75
2018-02-19T18:12:35.660Z,38.40
2018-02-19T18:15:03.610Z,39.65
2018-02-19T18:17:31.069Z,39.13
2018-02-19T18:19:58.529Z,39.80
2018-02-19T18:22:25.982Z,38.40
2018-02-19T18:24:53.419Z,42.10
2018-02-19T18:27:20.890Z,44.50
2018-02-19T18:29:48.338Z,44.05
2018-02-19T18:32:15.780Z,44.38
2018-02-19T18:34:43.235Z,43.67
2018-02-19T18:37:10.685Z,43.10
2018-02-19T18:39:38.878Z,45.40
2018-02-19T18:42:06.349Z,42.90
2018-02-19T18:44:33.795Z,43.03
2018-02-19T18:47:01.254Z,42.25
2018-02-19T18:49:28.704Z,36.75
2018-02-19T18:51:56.175Z,41.30
2018-02-19T18:54:23.610Z,39.30
2018-02-19T18:56:51.179Z,40.42
2018-02-19T18:59:18.594Z,43.03
2018-02-19T19:01:46.802Z,38.22
2018-02-19T19:04:14.369Z,39.88
2018-02-19T19:06:41.797Z,37.60
2018-02-19T19:09:20.991Z,40.55
2018-02-19T19:11:48.443Z,39.13
2018-02-19T19:14:15.896Z,39.20
2018-02-19T19:16:43.330Z,39.78
2018-02-19T19:19:10.761Z,40.00
2018-02-19T19:21:38.203Z,43.95
2018-02-19T19:24:06.414Z,41.47
2018-02-19T19:26:33.869Z,40.25
2018-02-19T19:29:01.305Z,40.40
2018-02-19T19:31:28.750Z,40.75
2018-02-19T19:33:56.942Z,41.95
2018-02-19T19:36:24.389Z,41.33
2018-02-19T19:38:51.820Z,42.58
2018-02-19T19:41:20.030Z,39.13
2018-02-19T19:43:47.458Z,37.97
2018-02-19T19:46:15.673Z,38.22
2018-02-19T19:48:43.102Z,38.38
2018-02-19T19:51:10.557Z,38.97
2018-02-19T19:53:37.993Z,40.28
2018-02-19T19:56:05.453Z,40.95
2018-02-19T19:58:33.660Z,42.80
2018-02-19T20:01:01.106Z,40.20
2018-02-19T20:03:28.607Z,39.90
2018-02-19T20:05:56.037Z,41.65
2018-02-19T20:08:23.487Z,43.22
2018-02-19T20:10:50.914Z,41.65
2018-02-19T20:13:19.182Z,43.38
2018-02-19T20:15:46.565Z,40.80
2018-02-19T20:18:14.002Z,39.50
2018-02-19T20:20:41.442Z,41.53
2018-02-19T20:23:09.738Z,40.40
2018-02-19T20:25:37.168Z,39.20
2018-02-19T20:28:04.623Z,42.00
2018-02-19T20:30:32.070Z,41.42
2018-02-19T20:32:59.490Z,43.55
2018-02-19T20:35:26.914Z,44.33
2018-02-19T20:37:55.153Z,43.03
2018-02-19T20:40:22.578Z,41.80
2018-02-19T20:42:50.018Z,41.47
2018-02-19T20:45:17.449Z,39.60
2018-02-19T20:47:45.657Z,39.77
2018-02-19T20:50:13.097Z,40.53
2018-02-19T20:52:41.306Z,39.97
2018-02-19T20:55:08.797Z,39.63
2018-02-19T20:57:36.196Z,39.97
2018-02-19T21:00:03.634Z,38.88
2018-02-19T21:02:31.079Z,40.05
2018-02-19T21:04:59.275Z,40.22
2018-02-19T21:07:26.733Z,42.35
2018-02-19T21:09:54.172Z,42.65
2018-02-19T21:12:21.609Z,40.30
2018-02-19T21:14:49.818Z,43.90
2018-02-19T21:17:17.979Z,43.15
2018-02-19T21:19:45.416Z,42.40
2018-02-19T21:22:13.618Z,40.80
2018-02-19T21:24:41.050Z,44.38
2018-02-19T21:27:09.255Z,40.97
2018-02-19T21:29:36.734Z,42.83
2018-02-19T21:32:04.213Z,42.15
2018-02-19T21:34:31.664Z,42.38
2018-02-19T21:36:59.110Z,43.63
2018-02-19T21:39:26.555Z,43.30
2018-02-19T21:41:53.994Z,41.30
2018-02-19T21:44:21.429Z,43.08
2018-02-19T21:46:48.870Z,41.95
2018-02-19T21:49:16.314Z,41.05
2018-02-19T21:51:43.752Z,40.78
2018-02-19T21:54:11.187Z,41.10
2018-02-19T21:56:38.613Z,42.88
2018-02-19T21:59:06.041Z,44.55
2018-02-19T22:01:34.259Z,41.90
2018-02-19T22:04:01.715Z,42.70
2018-02-19T22:06:29.172Z,41.65
2018-02-19T22:08:56.585Z,42.13
2018-02-19T22:11:24.794Z,43.30
2018-02-19T22:13:52.226Z,42.83
2018-02-19T22:16:20.426Z,45.35
2018-02-19T22:18:47.853Z,42.42
2018-02-19T22:21:16.070Z,42.05
2018-02-19T22:23:43.510Z,45.17
2018-02-19T22:26:10.947Z,43.97
2018-02-19T22:28:39.249Z,44.05
2018-02-19T22:31:06.677Z,43.05
2018-02-19T22:33:34.881Z,43.47
2018-02-19T22:36:02.322Z,45.72
2018-02-19T22:38:29.775Z,44.22
2018-02-19T22:40:57.223Z,46.92
2018-02-19T22:43:25.425Z,43.60
2018-02-19T22:45:52.910Z,43.40
2018-02-19T22:48:20.466Z,42.30
2018-02-19T22:50:47.905Z,44.88
2018-02-19T22:53:15.374Z,43.40
2018-02-19T22:55:42.794Z,42.20
2018-02-19T22:58:10.277Z,43.50
2018-02-19T23:00:37.700Z,43.92
2018-02-19T23:03:05.130Z,42.53
2018-02-19T23:05:33.334Z,42.67
2018-02-19T23:08:00.866Z,43.20
2018-02-19T23:10:29.149Z,41.85
2018-02-19T23:12:57.431Z,44.83
2018-02-19T23:15:24.947Z,47.15
2018-02-19T23:17:52.399Z,44.55
2018-02-19T23:20:19.843Z,45.45
2018-02-19T23:22:47.301Z,44.67
2018-02-19T23:25:14.728Z,48.03
2018-02-19T23:27:42.215Z,47.55
2018-02-19T23:30:09.651Z,45.28
2018-02-19T23:32:37.129Z,43.28
2018-02-19T23:35:04.575Z,43.35
2018-02-19T23:37:32.014Z,45.85
2018-02-19T23:39:59.493Z,47.00
2018-02-19T23:42:26.962Z,45.50
2018-02-19T23:44:54.367Z,45.90
2018-02-19T23:47:21.798Z,44.90
2018-02-19T23:49:49.992Z,44.65
2018-02-19T23:52:17.438Z,45.38
2018-02-19T23:54:45.666Z,44.10
2018-02-19T23:57:13.130Z,47.15
2018-02-19T23:59:40.578Z,42.95
